sensor_id;sensor_type;location;lat;lon;timestamp;temperature;humidity
32614;DHT22;19031;51.400;6.770;2023-06-19T00:00:56;23.00;99.90
32614;DHT22;19031;51.400;6.770;2023-06-19T00:03:22;23.00;99.90
32614;DHT22;19031;51.400;6.770;2023-06-19T00:05:47;22.90;99.90
32614;DHT22;19031;51.400;6.770;2023-06-19T00:08:13;22.80;99.90
32614;DHT22;19031;51.400;6.770;2023-06-19T00:10:38;22.80;99.90
32614;DHT22;19031;51.400;6.770;2023-06-19T00:13:04;22.70;99.90
32614;DHT22;19031;51.400;6.770;2023-06-19T00:15:30;22.60;99.90
32614;DHT22;19031;51.400;6.770;2023-06-19T00:17:56;22.50;99.90
32614;DHT22;19031;51.400;6.770;2023-06-19T00:20:23;22.40;99.90
32614;DHT22;19031;51.400;6.770;2023-06-19T00:22:48;22.50;99.90
32614;DHT22;19031;51.400;6.770;2023-06-19T00:25:17;22.40;99.90
32614;DHT22;19031;51.400;6.770;2023-06-19T00:27:43;22.30;99.90
32614;DHT22;19031;51.400;6.770;2023-06-19T00:30:09;22.30;99.90
32614;DHT22;19031;51.400;6.770;2023-06-19T00:32:34;22.20;99.90
32614;DHT22;19031;51.400;6.770;2023-06-19T00:35:12;22.00;99.90
32614;DHT22;19031;51.400;6.770;2023-06-19T00:37:38;21.80;99.90
32614;DHT22;19031;51.400;6.770;2023-06-19T00:40:04;21.80;99.90
32614;DHT22;19031;51.400;6.770;2023-06-19T00:42:31;21.80;99.90
32614;DHT22;19031;51.400;6.770;2023-06-19T00:44:56;21.80;99.90
32614;DHT22;19031;51.400;6.770;2023-06-19T00:47:22;21.70;99.90
32614;DHT22;19031;51.400;6.770;2023-06-19T00:49:48;21.70;99.90
32614;DHT22;19031;51.400;6.770;2023-06-19T00:52:13;21.70;99.90
32614;DHT22;19031;51.400;6.770;2023-06-19T00:54:39;21.70;99.90
32614;DHT22;19031;51.400;6.770;2023-06-19T00:57:05;21.50;99.90
32614;DHT22;19031;51.400;6.770;2023-06-19T00:59:31;21.60;99.90
32614;DHT22;19031;51.400;6.770;2023-06-19T01:01:56;21.50;99.90
32614;DHT22;19031;51.400;6.770;2023-06-19T01:04:22;21.40;99.90
32614;DHT22;19031;51.400;6.770;2023-06-19T01:06:57;21.40;99.90
32614;DHT22;19031;51.400;6.770;2023-06-19T01:09:28;21.30;99.90
32614;DHT22;19031;51.400;6.770;2023-06-19T01:11:59;21.20;99.90
32614;DHT22;19031;51.400;6.770;2023-06-19T01:14:34;21.30;99.90
32614;DHT22;19031;51.400;6.770;2023-06-19T01:17:01;21.10;99.90
32614;DHT22;19031;51.400;6.770;2023-06-19T01:19:27;21.10;99.90
32614;DHT22;19031;51.400;6.770;2023-06-19T01:21:52;21.00;99.90
32614;DHT22;19031;51.400;6.770;2023-06-19T01:24:18;20.90;99.90
32614;DHT22;19031;51.400;6.770;2023-06-19T01:26:44;20.80;99.90
32614;DHT22;19031;51.400;6.770;2023-06-19T01:29:12;20.70;99.90
32614;DHT22;19031;51.400;6.770;2023-06-19T01:31:45;20.70;99.90
32614;DHT22;19031;51.400;6.770;2023-06-19T01:34:15;20.60;99.90
32614;DHT22;19031;51.400;6.770;2023-06-19T01:36:42;20.50;99.90
32614;DHT22;19031;51.400;6.770;2023-06-19T01:39:09;20.50;99.90
32614;DHT22;19031;51.400;6.770;2023-06-19T01:41:35;20.40;99.90
32614;DHT22;19031;51.400;6.770;2023-06-19T01:44:02;20.40;99.90
32614;DHT22;19031;51.400;6.770;2023-06-19T01:46:27;20.30;99.90
32614;DHT22;19031;51.400;6.770;2023-06-19T01:48:53;20.20;99.90
32614;DHT22;19031;51.400;6.770;2023-06-19T01:51:19;20.10;99.90
32614;DHT22;19031;51.400;6.770;2023-06-19T01:53:44;20.10;99.90
32614;DHT22;19031;51.400;6.770;2023-06-19T01:56:10;20.10;99.90
32614;DHT22;19031;51.400;6.770;2023-06-19T01:58:36;20.00;99.90
32614;DHT22;19031;51.400;6.770;2023-06-19T02:01:02;20.00;99.90
32614;DHT22;19031;51.400;6.770;2023-06-19T02:03:27;19.90;99.90
32614;DHT22;19031;51.400;6.770;2023-06-19T02:05:53;19.90;99.90
32614;DHT22;19031;51.400;6.770;2023-06-19T02:08:18;19.80;99.90
32614;DHT22;19031;51.400;6.770;2023-06-19T02:10:44;19.90;99.90
32614;DHT22;19031;51.400;6.770;2023-06-19T02:13:10;19.90;99.90
32614;DHT22;19031;51.400;6.770;2023-06-19T02:15:35;19.80;99.90
32614;DHT22;19031;51.400;6.770;2023-06-19T02:18:02;19.80;99.90
32614;DHT22;19031;51.400;6.770;2023-06-19T02:20:28;19.90;99.90
32614;DHT22;19031;51.400;6.770;2023-06-19T02:22:53;20.00;99.90
32614;DHT22;19031;51.400;6.770;2023-06-19T02:25:19;20.00;99.90
32614;DHT22;19031;51.400;6.770;2023-06-19T02:27:45;20.00;99.90
32614;DHT22;19031;51.400;6.770;2023-06-19T02:30:11;20.20;99.90
32614;DHT22;19031;51.400;6.770;2023-06-19T02:32:36;20.20;99.90
32614;DHT22;19031;51.400;6.770;2023-06-19T02:35:04;20.30;99.90
32614;DHT22;19031;51.400;6.770;2023-06-19T02:37:30;20.30;99.90
32614;DHT22;19031;51.400;6.770;2023-06-19T02:39:55;20.40;99.90
32614;DHT22;19031;51.400;6.770;2023-06-19T02:42:21;20.50;99.90
32614;DHT22;19031;51.400;6.770;2023-06-19T02:44:46;20.70;99.90
32614;DHT22;19031;51.400;6.770;2023-06-19T02:47:12;20.70;99.90
32614;DHT22;19031;51.400;6.770;2023-06-19T02:49:37;20.80;99.90
32614;DHT22;19031;51.400;6.770;2023-06-19T02:52:04;20.80;99.90
32614;DHT22;19031;51.400;6.770;2023-06-19T02:54:30;21.00;99.90
32614;DHT22;19031;51.400;6.770;2023-06-19T02:56:55;21.10;99.90
32614;DHT22;19031;51.400;6.770;2023-06-19T02:59:21;21.20;99.90
32614;DHT22;19031;51.400;6.770;2023-06-19T03:01:46;21.20;99.90
32614;DHT22;19031;51.400;6.770;2023-06-19T03:04:13;21.30;99.90
32614;DHT22;19031;51.400;6.770;2023-06-19T03:06:38;21.30;99.90
32614;DHT22;19031;51.400;6.770;2023-06-19T03:09:05;21.30;99.90
32614;DHT22;19031;51.400;6.770;2023-06-19T03:11:40;21.40;99.90
32614;DHT22;19031;51.400;6.770;2023-06-19T03:14:05;21.40;99.90
32614;DHT22;19031;51.400;6.770;2023-06-19T03:16:33;21.30;99.90
32614;DHT22;19031;51.400;6.770;2023-06-19T03:18:59;21.40;99.90
32614;DHT22;19031;51.400;6.770;2023-06-19T03:21:24;21.50;99.90
32614;DHT22;19031;51.400;6.770;2023-06-19T03:23:50;21.40;99.90
32614;DHT22;19031;51.400;6.770;2023-06-19T03:26:16;21.40;99.90
32614;DHT22;19031;51.400;6.770;2023-06-19T03:28:41;21.40;99.90
32614;DHT22;19031;51.400;6.770;2023-06-19T03:31:07;21.40;99.90
32614;DHT22;19031;51.400;6.770;2023-06-19T03:33:32;21.40;99.90
32614;DHT22;19031;51.400;6.770;2023-06-19T03:35:58;21.30;99.90
32614;DHT22;19031;51.400;6.770;2023-06-19T03:38:23;21.20;99.90
32614;DHT22;19031;51.400;6.770;2023-06-19T03:40:49;21.30;99.90
32614;DHT22;19031;51.400;6.770;2023-06-19T03:43:14;21.30;99.90
32614;DHT22;19031;51.400;6.770;2023-06-19T03:45:40;21.30;99.90
32614;DHT22;19031;51.400;6.770;2023-06-19T03:48:06;21.30;99.90
32614;DHT22;19031;51.400;6.770;2023-06-19T03:50:31;21.30;99.90
32614;DHT22;19031;51.400;6.770;2023-06-19T03:52:57;21.20;99.90
32614;DHT22;19031;51.400;6.770;2023-06-19T03:55:22;21.20;99.90
32614;DHT22;19031;51.400;6.770;2023-06-19T03:57:48;21.10;99.90
32614;DHT22;19031;51.400;6.770;2023-06-19T04:00:14;21.10;99.90
32614;DHT22;19031;51.400;6.770;2023-06-19T04:02:40;21.00;99.90
32614;DHT22;19031;51.400;6.770;2023-06-19T04:05:06;21.00;99.90
32614;DHT22;19031;51.400;6.770;2023-06-19T04:07:32;20.90;99.90
32614;DHT22;19031;51.400;6.770;2023-06-19T04:09:58;20.90;99.90
32614;DHT22;19031;51.400;6.770;2023-06-19T04:12:24;20.80;99.90
32614;DHT22;19031;51.400;6.770;2023-06-19T04:14:49;20.80;99.90
32614;DHT22;19031;51.400;6.770;2023-06-19T04:17:15;20.80;99.90
32614;DHT22;19031;51.400;6.770;2023-06-19T04:19:41;20.90;99.90
32614;DHT22;19031;51.400;6.770;2023-06-19T04:22:06;20.80;99.90
32614;DHT22;19031;51.400;6.770;2023-06-19T04:24:32;20.80;99.90
32614;DHT22;19031;51.400;6.770;2023-06-19T04:26:58;20.80;99.90
32614;DHT22;19031;51.400;6.770;2023-06-19T04:29:23;20.70;99.90
32614;DHT22;19031;51.400;6.770;2023-06-19T04:31:49;20.70;99.90
32614;DHT22;19031;51.400;6.770;2023-06-19T04:34:18;20.70;99.90
32614;DHT22;19031;51.400;6.770;2023-06-19T04:36:49;20.60;99.90
32614;DHT22;19031;51.400;6.770;2023-06-19T04:39:15;20.60;99.90
32614;DHT22;19031;51.400;6.770;2023-06-19T04:41:42;20.60;99.90
32614;DHT22;19031;51.400;6.770;2023-06-19T04:44:09;20.60;99.90
32614;DHT22;19031;51.400;6.770;2023-06-19T04:46:37;20.70;99.90
32614;DHT22;19031;51.400;6.770;2023-06-19T04:49:03;20.70;99.90
32614;DHT22;19031;51.400;6.770;2023-06-19T04:51:32;20.70;99.90
32614;DHT22;19031;51.400;6.770;2023-06-19T04:54:01;20.90;99.90
32614;DHT22;19031;51.400;6.770;2023-06-19T04:56:27;20.90;99.90
32614;DHT22;19031;51.400;6.770;2023-06-19T04:58:54;20.90;99.90
32614;DHT22;19031;51.400;6.770;2023-06-19T05:01:21;20.90;99.90
32614;DHT22;19031;51.400;6.770;2023-06-19T05:03:53;20.90;99.90
32614;DHT22;19031;51.400;6.770;2023-06-19T05:06:19;21.00;99.90
32614;DHT22;19031;51.400;6.770;2023-06-19T05:08:44;21.00;99.90
32614;DHT22;19031;51.400;6.770;2023-06-19T05:11:10;21.10;99.90
32614;DHT22;19031;51.400;6.770;2023-06-19T05:13:35;21.10;99.90
32614;DHT22;19031;51.400;6.770;2023-06-19T05:16:01;21.30;99.90
32614;DHT22;19031;51.400;6.770;2023-06-19T05:18:26;21.50;99.90
32614;DHT22;19031;51.400;6.770;2023-06-19T05:20:52;21.70;99.90
32614;DHT22;19031;51.400;6.770;2023-06-19T05:23:18;21.50;99.90
32614;DHT22;19031;51.400;6.770;2023-06-19T05:25:43;21.40;99.90
32614;DHT22;19031;51.400;6.770;2023-06-19T05:28:09;21.60;99.90
32614;DHT22;19031;51.400;6.770;2023-06-19T05:30:34;21.50;99.90
32614;DHT22;19031;51.400;6.770;2023-06-19T05:33:01;21.60;99.90
32614;DHT22;19031;51.400;6.770;2023-06-19T05:35:26;21.70;99.90
32614;DHT22;19031;51.400;6.770;2023-06-19T05:37:52;21.80;99.90
32614;DHT22;19031;51.400;6.770;2023-06-19T05:40:18;21.80;99.90
32614;DHT22;19031;51.400;6.770;2023-06-19T05:42:43;21.90;99.90
32614;DHT22;19031;51.400;6.770;2023-06-19T05:45:09;21.90;99.90
32614;DHT22;19031;51.400;6.770;2023-06-19T05:47:37;22.00;99.90
32614;DHT22;19031;51.400;6.770;2023-06-19T05:50:03;21.80;99.90
32614;DHT22;19031;51.400;6.770;2023-06-19T05:52:29;21.60;99.90
32614;DHT22;19031;51.400;6.770;2023-06-19T05:54:54;21.70;99.90
32614;DHT22;19031;51.400;6.770;2023-06-19T05:57:20;21.90;99.90
32614;DHT22;19031;51.400;6.770;2023-06-19T05:59:49;22.00;99.90
32614;DHT22;19031;51.400;6.770;2023-06-19T06:02:15;21.90;99.90
32614;DHT22;19031;51.400;6.770;2023-06-19T06:04:41;21.60;99.90
32614;DHT22;19031;51.400;6.770;2023-06-19T06:07:08;21.70;99.90
32614;DHT22;19031;51.400;6.770;2023-06-19T06:09:34;21.70;99.90
32614;DHT22;19031;51.400;6.770;2023-06-19T06:11:59;21.80;99.90
32614;DHT22;19031;51.400;6.770;2023-06-19T06:14:26;21.90;99.90
32614;DHT22;19031;51.400;6.770;2023-06-19T06:16:51;21.90;99.90
32614;DHT22;19031;51.400;6.770;2023-06-19T06:19:21;21.90;99.90
32614;DHT22;19031;51.400;6.770;2023-06-19T06:21:48;21.90;99.90
32614;DHT22;19031;51.400;6.770;2023-06-19T06:24:14;21.90;99.90
32614;DHT22;19031;51.400;6.770;2023-06-19T06:26:39;21.90;99.90
32614;DHT22;19031;51.400;6.770;2023-06-19T06:29:05;22.00;99.90
32614;DHT22;19031;51.400;6.770;2023-06-19T06:31:30;21.90;99.90
32614;DHT22;19031;51.400;6.770;2023-06-19T06:33:56;22.00;99.90
32614;DHT22;19031;51.400;6.770;2023-06-19T06:36:22;21.90;99.90
32614;DHT22;19031;51.400;6.770;2023-06-19T06:38:47;21.90;99.90
32614;DHT22;19031;51.400;6.770;2023-06-19T06:41:13;22.10;99.90
32614;DHT22;19031;51.400;6.770;2023-06-19T06:43:40;22.10;99.90
32614;DHT22;19031;51.400;6.770;2023-06-19T06:46:08;22.10;99.90
32614;DHT22;19031;51.400;6.770;2023-06-19T06:48:33;22.00;99.90
32614;DHT22;19031;51.400;6.770;2023-06-19T06:50:59;21.90;99.90
32614;DHT22;19031;51.400;6.770;2023-06-19T06:53:27;21.90;99.90
32614;DHT22;19031;51.400;6.770;2023-06-19T06:55:58;21.90;99.90
32614;DHT22;19031;51.400;6.770;2023-06-19T06:58:24;21.90;99.90
32614;DHT22;19031;51.400;6.770;2023-06-19T07:00:50;21.80;99.90
32614;DHT22;19031;51.400;6.770;2023-06-19T07:03:16;21.70;99.90
32614;DHT22;19031;51.400;6.770;2023-06-19T07:05:43;21.70;99.90
32614;DHT22;19031;51.400;6.770;2023-06-19T07:08:09;21.70;99.90
32614;DHT22;19031;51.400;6.770;2023-06-19T07:10:34;21.70;99.90
32614;DHT22;19031;51.400;6.770;2023-06-19T07:13:00;21.80;99.90
32614;DHT22;19031;51.400;6.770;2023-06-19T07:15:26;21.80;99.90
32614;DHT22;19031;51.400;6.770;2023-06-19T07:17:51;21.80;99.90
32614;DHT22;19031;51.400;6.770;2023-06-19T07:20:17;21.90;99.90
32614;DHT22;19031;51.400;6.770;2023-06-19T07:22:43;22.00;99.90
32614;DHT22;19031;51.400;6.770;2023-06-19T07:25:10;21.90;99.90
32614;DHT22;19031;51.400;6.770;2023-06-19T07:27:36;21.90;99.90
32614;DHT22;19031;51.400;6.770;2023-06-19T07:30:02;22.00;99.90
32614;DHT22;19031;51.400;6.770;2023-06-19T07:32:28;22.20;99.90
32614;DHT22;19031;51.400;6.770;2023-06-19T07:34:54;22.00;99.90
32614;DHT22;19031;51.400;6.770;2023-06-19T07:37:20;22.10;99.90
32614;DHT22;19031;51.400;6.770;2023-06-19T07:39:47;22.00;99.90
32614;DHT22;19031;51.400;6.770;2023-06-19T07:42:13;22.10;99.90
32614;DHT22;19031;51.400;6.770;2023-06-19T07:44:40;22.20;99.90
32614;DHT22;19031;51.400;6.770;2023-06-19T07:47:06;22.20;99.90
32614;DHT22;19031;51.400;6.770;2023-06-19T07:49:32;22.10;99.90
32614;DHT22;19031;51.400;6.770;2023-06-19T07:51:57;22.10;99.90
32614;DHT22;19031;51.400;6.770;2023-06-19T07:54:23;21.90;99.90
32614;DHT22;19031;51.400;6.770;2023-06-19T07:56:49;21.80;99.90
32614;DHT22;19031;51.400;6.770;2023-06-19T07:59:14;21.70;99.90
32614;DHT22;19031;51.400;6.770;2023-06-19T08:01:40;21.60;99.90
32614;DHT22;19031;51.400;6.770;2023-06-19T08:04:06;21.80;99.90
32614;DHT22;19031;51.400;6.770;2023-06-19T08:06:31;22.00;99.90
32614;DHT22;19031;51.400;6.770;2023-06-19T08:08:57;22.30;99.90
32614;DHT22;19031;51.400;6.770;2023-06-19T08:11:23;22.70;99.90
32614;DHT22;19031;51.400;6.770;2023-06-19T08:13:48;23.20;99.90
32614;DHT22;19031;51.400;6.770;2023-06-19T08:16:14;23.70;99.90
32614;DHT22;19031;51.400;6.770;2023-06-19T08:18:40;24.30;99.90
32614;DHT22;19031;51.400;6.770;2023-06-19T08:21:05;25.00;99.90
32614;DHT22;19031;51.400;6.770;2023-06-19T08:23:31;25.60;99.90
32614;DHT22;19031;51.400;6.770;2023-06-19T08:25:56;25.70;99.90
32614;DHT22;19031;51.400;6.770;2023-06-19T08:28:22;25.70;99.90
32614;DHT22;19031;51.400;6.770;2023-06-19T08:30:48;25.90;99.90
32614;DHT22;19031;51.400;6.770;2023-06-19T08:33:14;25.90;99.90
32614;DHT22;19031;51.400;6.770;2023-06-19T08:35:40;26.00;99.90
32614;DHT22;19031;51.400;6.770;2023-06-19T08:38:05;26.00;99.90
32614;DHT22;19031;51.400;6.770;2023-06-19T08:40:32;26.30;99.90
32614;DHT22;19031;51.400;6.770;2023-06-19T08:42:58;26.20;99.90
32614;DHT22;19031;51.400;6.770;2023-06-19T08:45:26;26.40;99.90
32614;DHT22;19031;51.400;6.770;2023-06-19T08:47:58;26.40;99.90
32614;DHT22;19031;51.400;6.770;2023-06-19T08:50:25;26.60;99.90
32614;DHT22;19031;51.400;6.770;2023-06-19T08:52:50;26.50;99.90
32614;DHT22;19031;51.400;6.770;2023-06-19T08:55:16;26.60;99.90
32614;DHT22;19031;51.400;6.770;2023-06-19T08:57:41;26.60;99.90
32614;DHT22;19031;51.400;6.770;2023-06-19T09:00:07;26.40;99.90
32614;DHT22;19031;51.400;6.770;2023-06-19T09:02:41;26.50;99.90
32614;DHT22;19031;51.400;6.770;2023-06-19T09:05:17;26.80;99.90
32614;DHT22;19031;51.400;6.770;2023-06-19T09:07:44;26.90;99.90
32614;DHT22;19031;51.400;6.770;2023-06-19T09:10:19;27.00;99.90
32614;DHT22;19031;51.400;6.770;2023-06-19T09:12:59;26.80;99.90
32614;DHT22;19031;51.400;6.770;2023-06-19T09:15:27;26.90;99.90
32614;DHT22;19031;51.400;6.770;2023-06-19T09:18:10;26.50;99.90
32614;DHT22;19031;51.400;6.770;2023-06-19T09:20:39;26.50;99.90
32614;DHT22;19031;51.400;6.770;2023-06-19T09:23:10;26.60;99.90
32614;DHT22;19031;51.400;6.770;2023-06-19T09:25:51;26.70;99.90
32614;DHT22;19031;51.400;6.770;2023-06-19T09:28:23;26.60;99.90
32614;DHT22;19031;51.400;6.770;2023-06-19T09:31:02;26.20;99.90
32614;DHT22;19031;51.400;6.770;2023-06-19T09:33:32;26.40;99.90
32614;DHT22;19031;51.400;6.770;2023-06-19T09:36:00;26.60;99.90
32614;DHT22;19031;51.400;6.770;2023-06-19T09:38:29;26.40;99.90
32614;DHT22;19031;51.400;6.770;2023-06-19T09:40:56;26.40;99.90
32614;DHT22;19031;51.400;6.770;2023-06-19T09:43:26;26.40;99.90
32614;DHT22;19031;51.400;6.770;2023-06-19T09:45:56;26.70;99.90
32614;DHT22;19031;51.400;6.770;2023-06-19T09:48:29;26.80;99.90
32614;DHT22;19031;51.400;6.770;2023-06-19T09:51:00;26.60;99.90
32614;DHT22;19031;51.400;6.770;2023-06-19T09:53:27;26.40;99.90
32614;DHT22;19031;51.400;6.770;2023-06-19T09:55:53;26.60;99.90
32614;DHT22;19031;51.400;6.770;2023-06-19T09:58:20;26.30;99.90
32614;DHT22;19031;51.400;6.770;2023-06-19T10:00:46;26.30;99.90
32614;DHT22;19031;51.400;6.770;2023-06-19T10:03:13;26.40;99.90
32614;DHT22;19031;51.400;6.770;2023-06-19T10:05:39;26.20;99.90
32614;DHT22;19031;51.400;6.770;2023-06-19T10:08:06;26.40;99.90
32614;DHT22;19031;51.400;6.770;2023-06-19T10:10:32;26.60;99.90
32614;DHT22;19031;51.400;6.770;2023-06-19T10:13:10;26.60;99.90
32614;DHT22;19031;51.400;6.770;2023-06-19T10:15:41;26.70;99.90
32614;DHT22;19031;51.400;6.770;2023-06-19T10:18:18;26.90;99.90
32614;DHT22;19031;51.400;6.770;2023-06-19T10:20:45;26.90;99.90
32614;DHT22;19031;51.400;6.770;2023-06-19T10:23:15;26.90;99.90
32614;DHT22;19031;51.400;6.770;2023-06-19T10:25:44;27.00;99.90
32614;DHT22;19031;51.400;6.770;2023-06-19T10:28:30;27.20;99.90
32614;DHT22;19031;51.400;6.770;2023-06-19T10:31:07;27.60;99.90
32614;DHT22;19031;51.400;6.770;2023-06-19T10:33:35;28.10;99.50
32614;DHT22;19031;51.400;6.770;2023-06-19T10:36:16;28.60;98.30
32614;DHT22;19031;51.400;6.770;2023-06-19T10:38:42;28.60;98.10
32614;DHT22;19031;51.400;6.770;2023-06-19T10:41:16;29.00;97.10
32614;DHT22;19031;51.400;6.770;2023-06-19T10:43:41;29.50;96.60
32614;DHT22;19031;51.400;6.770;2023-06-19T10:46:07;29.80;95.90
32614;DHT22;19031;51.400;6.770;2023-06-19T10:48:32;29.80;94.10
32614;DHT22;19031;51.400;6.770;2023-06-19T10:50:59;30.20;93.50
32614;DHT22;19031;51.400;6.770;2023-06-19T10:53:29;30.70;93.50
32614;DHT22;19031;51.400;6.770;2023-06-19T10:56:00;31.40;92.10
32614;DHT22;19031;51.400;6.770;2023-06-19T10:58:26;31.60;90.40
32614;DHT22;19031;51.400;6.770;2023-06-19T11:00:52;31.80;86.50
32614;DHT22;19031;51.400;6.770;2023-06-19T11:03:19;32.00;85.00
32614;DHT22;19031;51.400;6.770;2023-06-19T11:05:46;31.70;81.80
32614;DHT22;19031;51.400;6.770;2023-06-19T11:08:18;31.50;82.00
32614;DHT22;19031;51.400;6.770;2023-06-19T11:10:43;31.70;79.70
32614;DHT22;19031;51.400;6.770;2023-06-19T11:13:17;31.80;80.00
32614;DHT22;19031;51.400;6.770;2023-06-19T11:15:43;31.90;75.80
32614;DHT22;19031;51.400;6.770;2023-06-19T11:18:09;31.80;77.20
32614;DHT22;19031;51.400;6.770;2023-06-19T11:20:53;31.40;77.20
32614;DHT22;19031;51.400;6.770;2023-06-19T11:23:26;31.70;75.60
32614;DHT22;19031;51.400;6.770;2023-06-19T11:25:52;32.00;79.30
32614;DHT22;19031;51.400;6.770;2023-06-19T11:28:18;32.30;75.90
32614;DHT22;19031;51.400;6.770;2023-06-19T11:30:48;32.80;74.00
32614;DHT22;19031;51.400;6.770;2023-06-19T11:33:21;32.60;71.20
32614;DHT22;19031;51.400;6.770;2023-06-19T11:35:51;33.10;71.30
32614;DHT22;19031;51.400;6.770;2023-06-19T11:38:19;32.70;68.90
32614;DHT22;19031;51.400;6.770;2023-06-19T11:40:45;32.80;71.00
32614;DHT22;19031;51.400;6.770;2023-06-19T11:43:11;32.80;67.30
32614;DHT22;19031;51.400;6.770;2023-06-19T11:45:48;33.00;67.70
32614;DHT22;19031;51.400;6.770;2023-06-19T11:48:21;32.70;69.80
32614;DHT22;19031;51.400;6.770;2023-06-19T11:50:46;32.80;67.50
32614;DHT22;19031;51.400;6.770;2023-06-19T11:53:12;33.40;66.60
32614;DHT22;19031;51.400;6.770;2023-06-19T11:55:38;33.70;64.80
32614;DHT22;19031;51.400;6.770;2023-06-19T11:58:05;33.50;63.70
32614;DHT22;19031;51.400;6.770;2023-06-19T12:00:31;33.50;64.00
32614;DHT22;19031;51.400;6.770;2023-06-19T12:02:56;33.10;64.30
32614;DHT22;19031;51.400;6.770;2023-06-19T12:05:23;33.50;64.40
32614;DHT22;19031;51.400;6.770;2023-06-19T12:07:49;33.10;62.30
32614;DHT22;19031;51.400;6.770;2023-06-19T12:10:15;33.20;64.80
32614;DHT22;19031;51.400;6.770;2023-06-19T12:12:41;33.70;63.10
32614;DHT22;19031;51.400;6.770;2023-06-19T12:15:06;34.00;62.90
32614;DHT22;19031;51.400;6.770;2023-06-19T12:17:32;34.00;61.80
32614;DHT22;19031;51.400;6.770;2023-06-19T12:19:58;34.20;61.50
32614;DHT22;19031;51.400;6.770;2023-06-19T12:22:24;34.20;59.70
32614;DHT22;19031;51.400;6.770;2023-06-19T12:24:49;34.30;60.80
32614;DHT22;19031;51.400;6.770;2023-06-19T12:27:15;34.30;59.10
32614;DHT22;19031;51.400;6.770;2023-06-19T12:29:41;34.50;61.00
32614;DHT22;19031;51.400;6.770;2023-06-19T12:32:07;34.10;60.10
32614;DHT22;19031;51.400;6.770;2023-06-19T12:34:32;34.10;58.90
32614;DHT22;19031;51.400;6.770;2023-06-19T12:36:58;34.10;60.70
32614;DHT22;19031;51.400;6.770;2023-06-19T12:39:24;33.90;58.80
32614;DHT22;19031;51.400;6.770;2023-06-19T12:41:50;34.00;59.30
32614;DHT22;19031;51.400;6.770;2023-06-19T12:44:16;34.00;58.80
32614;DHT22;19031;51.400;6.770;2023-06-19T12:46:42;34.10;59.40
32614;DHT22;19031;51.400;6.770;2023-06-19T12:49:07;33.80;59.70
32614;DHT22;19031;51.400;6.770;2023-06-19T12:51:34;33.50;60.70
32614;DHT22;19031;51.400;6.770;2023-06-19T12:54:00;33.10;60.60
32614;DHT22;19031;51.400;6.770;2023-06-19T12:56:25;33.10;61.00
32614;DHT22;19031;51.400;6.770;2023-06-19T12:58:51;33.00;61.20
32614;DHT22;19031;51.400;6.770;2023-06-19T13:01:16;33.40;61.70
32614;DHT22;19031;51.400;6.770;2023-06-19T13:03:42;33.60;60.00
32614;DHT22;19031;51.400;6.770;2023-06-19T13:06:08;33.60;60.60
32614;DHT22;19031;51.400;6.770;2023-06-19T13:08:33;34.00;59.20
32614;DHT22;19031;51.400;6.770;2023-06-19T13:10:59;34.40;58.30
32614;DHT22;19031;51.400;6.770;2023-06-19T13:13:24;34.50;57.80
32614;DHT22;19031;51.400;6.770;2023-06-19T13:15:50;34.30;58.10
32614;DHT22;19031;51.400;6.770;2023-06-19T13:18:17;35.00;56.10
32614;DHT22;19031;51.400;6.770;2023-06-19T13:20:43;34.70;55.30
32614;DHT22;19031;51.400;6.770;2023-06-19T13:23:10;35.20;57.00
32614;DHT22;19031;51.400;6.770;2023-06-19T13:25:35;35.40;54.70
32614;DHT22;19031;51.400;6.770;2023-06-19T13:28:01;35.40;56.60
32614;DHT22;19031;51.400;6.770;2023-06-19T13:30:27;35.30;59.10
32614;DHT22;19031;51.400;6.770;2023-06-19T13:32:52;35.20;55.80
32614;DHT22;19031;51.400;6.770;2023-06-19T13:35:18;35.70;56.40
32614;DHT22;19031;51.400;6.770;2023-06-19T13:37:44;36.10;54.70
32614;DHT22;19031;51.400;6.770;2023-06-19T13:40:09;36.40;54.60
32614;DHT22;19031;51.400;6.770;2023-06-19T13:42:35;36.60;53.60
32614;DHT22;19031;51.400;6.770;2023-06-19T13:45:01;36.50;52.90
32614;DHT22;19031;51.400;6.770;2023-06-19T13:47:27;36.00;51.20
32614;DHT22;19031;51.400;6.770;2023-06-19T13:49:53;36.00;52.60
32614;DHT22;19031;51.400;6.770;2023-06-19T13:52:18;36.20;53.40
32614;DHT22;19031;51.400;6.770;2023-06-19T13:54:44;36.30;51.10
32614;DHT22;19031;51.400;6.770;2023-06-19T13:57:10;36.50;50.90
32614;DHT22;19031;51.400;6.770;2023-06-19T13:59:35;36.30;51.40
32614;DHT22;19031;51.400;6.770;2023-06-19T14:02:01;35.80;50.90
32614;DHT22;19031;51.400;6.770;2023-06-19T14:04:27;35.60;52.10
32614;DHT22;19031;51.400;6.770;2023-06-19T14:06:52;35.80;52.70
32614;DHT22;19031;51.400;6.770;2023-06-19T14:09:20;35.80;51.90
32614;DHT22;19031;51.400;6.770;2023-06-19T14:11:46;35.80;50.90
32614;DHT22;19031;51.400;6.770;2023-06-19T14:14:11;35.70;52.20
32614;DHT22;19031;51.400;6.770;2023-06-19T14:16:37;36.10;52.60
32614;DHT22;19031;51.400;6.770;2023-06-19T14:19:02;35.90;50.80
32614;DHT22;19031;51.400;6.770;2023-06-19T14:21:28;35.70;50.40
32614;DHT22;19031;51.400;6.770;2023-06-19T14:23:54;35.80;51.90
32614;DHT22;19031;51.400;6.770;2023-06-19T14:26:20;35.90;51.00
32614;DHT22;19031;51.400;6.770;2023-06-19T14:28:45;36.30;53.00
32614;DHT22;19031;51.400;6.770;2023-06-19T14:31:11;36.60;50.30
32614;DHT22;19031;51.400;6.770;2023-06-19T14:33:36;36.00;48.90
32614;DHT22;19031;51.400;6.770;2023-06-19T14:36:03;35.90;50.40
32614;DHT22;19031;51.400;6.770;2023-06-19T14:38:29;35.40;50.10
32614;DHT22;19031;51.400;6.770;2023-06-19T14:41:02;35.10;50.30
32614;DHT22;19031;51.400;6.770;2023-06-19T14:43:27;35.50;52.30
32614;DHT22;19031;51.400;6.770;2023-06-19T14:45:54;35.90;51.00
32614;DHT22;19031;51.400;6.770;2023-06-19T14:48:19;35.70;50.80
32614;DHT22;19031;51.400;6.770;2023-06-19T14:50:45;35.80;50.90
32614;DHT22;19031;51.400;6.770;2023-06-19T14:53:11;35.50;52.30
32614;DHT22;19031;51.400;6.770;2023-06-19T14:55:36;35.20;50.80
32614;DHT22;19031;51.400;6.770;2023-06-19T14:58:05;34.40;52.10
32614;DHT22;19031;51.400;6.770;2023-06-19T15:00:30;34.00;53.60
32614;DHT22;19031;51.400;6.770;2023-06-19T15:02:56;34.40;53.80
32614;DHT22;19031;51.400;6.770;2023-06-19T15:05:21;34.10;53.10
32614;DHT22;19031;51.400;6.770;2023-06-19T15:07:47;34.50;53.00
32614;DHT22;19031;51.400;6.770;2023-06-19T15:10:13;34.30;54.20
32614;DHT22;19031;51.400;6.770;2023-06-19T15:12:38;34.90;54.30
32614;DHT22;19031;51.400;6.770;2023-06-19T15:15:04;35.40;52.00
32614;DHT22;19031;51.400;6.770;2023-06-19T15:17:30;35.40;52.90
32614;DHT22;19031;51.400;6.770;2023-06-19T15:19:56;35.70;52.80
32614;DHT22;19031;51.400;6.770;2023-06-19T15:22:21;35.40;50.50
32614;DHT22;19031;51.400;6.770;2023-06-19T15:24:47;35.50;51.50
32614;DHT22;19031;51.400;6.770;2023-06-19T15:27:12;35.60;53.30